createdAt,value
2019-01-14T00:03:38.565Z,83.49
2019-01-14T00:07:45.570Z,84.19
2019-01-14T00:11:53.146Z,84.36
2019-01-14T00:15:59.996Z,83.69
2019-01-14T00:20:08.013Z,83.32
2019-01-14T00:24:15.137Z,83.47
2019-01-14T00:28:22.131Z,82.91
2019-01-14T00:32:29.013Z,81.15
2019-01-14T00:36:35.977Z,80.50
2019-01-14T00:40:45.796Z,81.11
2019-01-14T00:44:52.992Z,80.74
2019-01-14T00:49:00.085Z,80.92
2019-01-14T00:53:07.074Z,80.88
2019-01-14T00:57:15.885Z,82.07
2019-01-14T01:01:22.998Z,81.09
2019-01-14T01:05:30.196Z,79.55
2019-01-14T01:09:37.282Z,79.58
2019-01-14T01:13:44.263Z,79.71
2019-01-14T01:17:52.192Z,80.68
2019-01-14T01:22:01.499Z,81.68
2019-01-14T01:26:08.701Z,82.22
2019-01-14T01:30:18.735Z,82.21
2019-01-14T01:34:25.854Z,82.47
2019-01-14T01:38:32.821Z,83.01
2019-01-14T01:42:39.855Z,83.00
2019-01-14T01:46:46.773Z,82.16
2019-01-14T01:50:53.752Z,81.32
2019-01-14T01:55:04.746Z,82.55
2019-01-14T01:59:11.941Z,83.41
2019-01-14T02:03:18.864Z,82.95
2019-01-14T02:07:25.939Z,82.03
2019-01-14T02:11:32.830Z,81.88
2019-01-14T02:15:39.669Z,81.74
2019-01-14T02:19:46.607Z,81.30
2019-01-14T02:23:53.684Z,80.93
2019-01-14T02:28:01.629Z,79.63
2019-01-14T02:32:08.544Z,81.12
2019-01-14T02:36:15.568Z,80.15
2019-01-14T02:40:23.884Z,80.78
2019-01-14T02:44:30.914Z,81.25
2019-01-14T02:48:37.846Z,82.08
2019-01-14T02:52:44.793Z,82.77
2019-01-14T02:56:51.947Z,84.10
2019-01-14T03:00:58.771Z,85.13
2019-01-14T03:05:06.444Z,85.88
2019-01-14T03:09:13.471Z,87.17
2019-01-14T03:13:20.836Z,87.62
2019-01-14T03:17:27.942Z,87.71
2019-01-14T03:21:34.965Z,87.88
2019-01-14T03:25:45.305Z,88.33
2019-01-14T03:29:53.266Z,88.33
2019-01-14T03:34:00.391Z,87.89
2019-01-14T03:38:07.332Z,87.56
2019-01-14T03:42:17.521Z,87.64
2019-01-14T03:46:26.047Z,88.03
2019-01-14T03:50:33.039Z,87.22
2019-01-14T03:54:40.050Z,86.69
2019-01-14T03:58:47.074Z,86.76
2019-01-14T04:02:54.215Z,87.46
2019-01-14T04:07:01.073Z,87.87
2019-01-14T04:11:08.440Z,87.69
2019-01-14T04:15:18.686Z,87.62
2019-01-14T04:19:25.835Z,88.08
2019-01-14T04:23:32.992Z,87.87
2019-01-14T04:27:40.013Z,88.65
2019-01-14T04:31:47.211Z,89.01
2019-01-14T04:35:54.506Z,90.29
2019-01-14T04:40:01.603Z,90.39
2019-01-14T04:44:08.731Z,90.63
2019-01-14T04:48:15.691Z,90.95
2019-01-14T04:52:22.797Z,91.69
2019-01-14T05:00:51.808Z,92.77
2019-01-14T05:04:59.133Z,93.45
2019-01-14T05:09:09.579Z,92.87
2019-01-14T05:13:16.687Z,93.20
2019-01-14T05:17:23.816Z,93.44
2019-01-14T05:21:30.752Z,93.44
2019-01-14T05:25:39.480Z,93.16
2019-01-14T05:29:46.737Z,92.88
2019-01-14T05:34:26.436Z,93.02
2019-01-14T05:38:33.715Z,93.04
2019-01-14T05:42:42.801Z,93.44
2019-01-14T05:46:50.029Z,93.50
2019-01-14T05:50:57.151Z,93.53
2019-01-14T05:55:05.043Z,93.82
2019-01-14T05:59:13.842Z,94.32
2019-01-14T06:03:23.059Z,94.01
2019-01-14T06:07:31.121Z,93.63
2019-01-14T06:11:40.111Z,93.36
2019-01-14T06:15:47.317Z,94.16
2019-01-14T06:19:54.755Z,94.24
2019-01-14T06:24:02.946Z,92.76
2019-01-14T06:28:09.854Z,92.09
2019-01-14T06:32:16.810Z,91.38
2019-01-14T06:36:23.950Z,91.42
2019-01-14T06:40:34.385Z,91.56
2019-01-14T06:44:41.271Z,92.72
2019-01-14T06:48:48.395Z,92.09
2019-01-14T06:53:00.807Z,92.46
2019-01-14T06:57:11.363Z,92.62
2019-01-14T07:01:21.492Z,92.17
2019-01-14T07:05:33.720Z,92.90
2019-01-14T07:09:40.675Z,91.91
2019-01-14T07:13:58.408Z,92.10
2019-01-14T07:18:05.643Z,90.94
2019-01-14T07:22:18.283Z,91.94
2019-01-14T07:26:25.919Z,95.21
2019-01-14T07:30:32.972Z,92.31
2019-01-14T07:34:40.137Z,96.00
2019-01-14T07:38:47.259Z,92.32
2019-01-14T07:42:54.299Z,93.51
2019-01-14T07:47:06.574Z,94.57
2019-01-14T07:51:41.522Z,95.21
2019-01-14T07:55:48.719Z,96.37
2019-01-14T07:59:55.810Z,97.20
2019-01-14T08:04:12.572Z,97.10
2019-01-14T08:08:27.209Z,96.90
2019-01-14T08:12:36.958Z,97.11
2019-01-14T08:16:48.442Z,96.36
2019-01-14T08:20:55.709Z,95.72
2019-01-14T08:25:05.426Z,95.54
2019-01-14T08:29:12.899Z,95.39
2019-01-14T08:33:27.644Z,95.70
2019-01-14T08:37:37.915Z,95.31
2019-01-14T08:41:59.157Z,94.74
2019-01-14T08:46:06.191Z,94.84
2019-01-14T08:50:21.428Z,94.78
2019-01-14T08:54:40.753Z,95.43
2019-01-14T08:58:51.344Z,95.14
2019-01-14T09:03:07.429Z,93.98
2019-01-14T09:07:18.798Z,93.29
2019-01-14T09:11:26.634Z,93.13
2019-01-14T09:15:48.677Z,92.50
2019-01-14T09:19:57.967Z,91.45
2019-01-14T09:24:05.503Z,89.38
2019-01-14T09:28:14.480Z,89.62
2019-01-14T09:32:21.584Z,90.16
2019-01-14T09:36:37.038Z,89.66
2019-01-14T09:40:46.433Z,89.21
2019-01-14T09:44:55.985Z,88.51
2019-01-14T09:49:03.138Z,86.29
2019-01-14T09:53:14.711Z,87.53
2019-01-14T09:57:20.825Z,88.15
2019-01-14T10:01:28.116Z,88.65
2019-01-14T10:05:38.592Z,88.99
2019-01-14T10:09:55.475Z,89.38
2019-01-14T10:14:25.551Z,92.12
2019-01-14T10:18:42.405Z,93.45
2019-01-14T10:22:53.452Z,96.96
2019-01-14T10:27:02.506Z,94.73
2019-01-14T10:31:19.764Z,95.22
2019-01-14T10:35:25.564Z,95.20
2019-01-14T10:39:33.068Z,94.68
2019-01-14T10:43:41.807Z,93.91
2019-01-14T10:47:50.162Z,93.76
2019-01-14T10:52:07.483Z,91.58
2019-01-14T10:56:20.059Z,88.97
2019-01-14T11:00:29.953Z,88.13
2019-01-14T11:04:47.669Z,87.93
2019-01-14T11:09:05.739Z,86.86
2019-01-14T11:13:19.571Z,83.72
2019-01-14T11:17:28.115Z,82.70
2019-01-14T11:21:35.339Z,80.46
2019-01-14T11:25:43.860Z,80.37
2019-01-14T11:29:54.949Z,78.66
2019-01-14T11:34:08.366Z,77.36
2019-01-14T11:38:42.610Z,76.21
2019-01-14T11:43:00.889Z,76.96
2019-01-14T11:47:16.116Z,76.06
2019-01-14T11:51:32.177Z,75.37
2019-01-14T11:55:59.174Z,73.81
2019-01-14T12:00:21.374Z,75.13
2019-01-14T12:05:12.429Z,76.42
2019-01-14T12:10:09.780Z,71.73
2019-01-14T12:14:40.677Z,70.52
2019-01-14T12:19:16.205Z,67.96
2019-01-14T12:23:48.962Z,68.97
2019-01-14T12:28:20.530Z,70.44
2019-01-14T12:32:37.810Z,68.28
2019-01-14T12:36:49.953Z,68.06
2019-01-14T12:41:18.251Z,65.88
2019-01-14T12:45:36.269Z,62.78
2019-01-14T12:49:48.356Z,62.12
2019-01-14T12:54:28.341Z,62.39
2019-01-14T12:59:30.968Z,62.71
2019-01-14T13:03:49.108Z,65.10
2019-01-14T13:08:33.011Z,64.07
2019-01-14T13:12:59.865Z,64.27
2019-01-14T13:18:05.691Z,63.04
2019-01-14T13:28:01.261Z,61.40
2019-01-14T13:29:41.119Z,62.79
2019-01-14T13:32:56.766Z,60.59
2019-01-14T13:38:08.341Z,59.62
2019-01-14T13:43:26.618Z,60.22
2019-01-14T13:48:13.231Z,60.80
2019-01-14T13:53:27.506Z,61.99
2019-01-14T13:57:46.595Z,62.00
2019-01-14T14:02:08.617Z,62.48
2019-01-14T14:06:31.999Z,63.02
2019-01-14T14:11:19.092Z,63.86
2019-01-14T14:16:21.621Z,63.95
2019-01-14T14:21:06.929Z,65.08
2019-01-14T14:25:46.538Z,65.12
2019-01-14T14:30:34.324Z,65.19
2019-01-14T14:35:05.523Z,65.63
2019-01-14T14:39:24.210Z,64.88
2019-01-14T14:43:30.077Z,64.54
2019-01-14T14:47:45.736Z,65.02
2019-01-14T14:52:01.095Z,65.29
2019-01-14T14:56:10.332Z,65.21
2019-01-14T15:00:22.304Z,65.98
2019-01-14T15:04:32.728Z,66.72
2019-01-14T15:08:41.652Z,67.00
2019-01-14T15:12:54.829Z,67.03
2019-01-14T15:17:04.966Z,67.23
2019-01-14T15:21:18.008Z,67.17
2019-01-14T15:25:29.350Z,67.50
2019-01-14T15:29:38.001Z,67.70
2019-01-14T15:33:45.811Z,67.28
2019-01-14T15:37:53.849Z,67.69
2019-01-14T15:42:08.833Z,67.13
2019-01-14T15:46:16.808Z,67.60
2019-01-14T15:50:24.621Z,67.64
2019-01-14T15:54:43.767Z,67.37
2019-01-14T15:58:51.641Z,67.43
2019-01-14T16:02:58.988Z,67.64
2019-01-14T16:07:15.187Z,68.06
2019-01-14T16:11:27.973Z,69.14
2019-01-14T16:15:37.379Z,69.48
2019-01-14T16:19:45.241Z,70.54
2019-01-14T16:23:59.791Z,71.65
2019-01-14T16:28:07.064Z,73.17
2019-01-14T16:32:24.712Z,72.91
2019-01-14T16:36:35.423Z,73.44
2019-01-14T16:40:53.682Z,73.46
2019-01-14T16:45:15.284Z,73.84
2019-01-14T16:49:30.603Z,73.46
2019-01-14T16:53:46.089Z,72.76
2019-01-14T16:58:01.826Z,73.28
2019-01-14T17:02:18.175Z,73.23
2019-01-14T17:06:43.455Z,73.64
2019-01-14T17:11:25.629Z,75.76
2019-01-14T17:15:38.285Z,76.55
2019-01-14T17:19:50.763Z,77.54
2019-01-14T17:24:12.536Z,78.02
2019-01-14T17:28:30.384Z,77.81
2019-01-14T17:32:41.832Z,76.01
2019-01-14T17:36:50.766Z,75.92
2019-01-14T17:40:59.744Z,75.29
2019-01-14T17:45:10.835Z,74.76
2019-01-14T17:49:27.412Z,75.01
2019-01-14T17:53:47.072Z,74.99
2019-01-14T17:57:56.178Z,75.41
2019-01-14T18:02:04.652Z,76.66
2019-01-14T18:06:27.479Z,75.41
2019-01-14T18:10:52.108Z,75.41
2019-01-14T18:15:02.815Z,75.36
2019-01-14T18:19:45.412Z,75.21
2019-01-14T18:24:03.502Z,75.14
2019-01-14T18:28:22.521Z,74.18
2019-01-14T18:32:38.484Z,74.09
2019-01-14T18:37:44.377Z,73.65
2019-01-14T18:42:04.498Z,75.81
2019-01-14T18:46:18.372Z,79.64
2019-01-14T18:50:30.673Z,82.54
2019-01-14T18:55:01.265Z,87.02
2019-01-14T18:59:21.682Z,89.54
2019-01-14T19:03:38.522Z,90.89
2019-01-14T19:07:46.566Z,91.05
2019-01-14T19:11:56.695Z,91.49
2019-01-14T19:16:04.127Z,90.39
2019-01-14T19:20:21.977Z,87.28
2019-01-14T19:24:42.038Z,86.35
2019-01-14T19:28:49.408Z,87.15
2019-01-14T19:32:56.292Z,83.80
2019-01-14T19:37:08.440Z,83.26
2019-01-14T19:41:15.357Z,81.80
2019-01-14T19:45:23.471Z,80.56
2019-01-14T19:49:30.544Z,80.67
2019-01-14T19:53:37.563Z,80.04
2019-01-14T19:57:44.834Z,80.03
2019-01-14T20:01:51.955Z,80.14
2019-01-14T20:05:59.038Z,78.53
2019-01-14T20:10:08.734Z,78.39
2019-01-14T20:14:15.697Z,78.41
2019-01-14T20:18:24.077Z,79.35
2019-01-14T20:22:31.547Z,77.28
2019-01-14T20:26:40.513Z,77.12
2019-01-14T20:30:50.608Z,77.10
2019-01-14T20:34:57.847Z,92.02
2019-01-14T20:39:09.547Z,78.65
2019-01-14T20:43:25.249Z,78.75
2019-01-14T20:47:32.673Z,77.34
2019-01-14T20:51:39.892Z,79.20
2019-01-14T20:55:47.434Z,77.68
2019-01-14T20:59:56.516Z,76.83
2019-01-14T21:04:06.811Z,76.41
2019-01-14T21:08:14.004Z,75.99
2019-01-14T21:12:21.994Z,77.29
2019-01-14T21:16:29.055Z,76.40
2019-01-14T21:20:36.109Z,76.00
2019-01-14T21:24:43.254Z,75.57
2019-01-14T21:28:50.312Z,75.93
2019-01-14T21:32:57.651Z,76.90
2019-01-14T21:37:06.475Z,76.81
2019-01-14T21:41:17.744Z,78.33
2019-01-14T21:45:39.898Z,77.64
2019-01-14T21:50:16.888Z,77.40
2019-01-14T21:54:33.552Z,77.67
2019-01-14T21:58:44.954Z,78.41
2019-01-14T22:03:10.177Z,79.14
2019-01-14T22:07:22.955Z,78.17
2019-01-14T22:11:38.284Z,78.06
2019-01-14T22:15:41.651Z,78.39
2019-01-14T22:19:52.793Z,78.48
2019-01-14T22:23:59.744Z,78.71
2019-01-14T22:28:06.713Z,79.74
2019-01-14T22:32:14.018Z,79.40
2019-01-14T22:36:21.121Z,79.78
2019-01-14T22:40:28.196Z,79.86
2019-01-14T22:44:35.163Z,79.63
2019-01-14T22:48:42.169Z,79.68
2019-01-14T22:52:49.674Z,79.25
2019-01-14T22:56:56.946Z,79.03
2019-01-14T23:01:46.671Z,79.36
2019-01-14T23:05:54.844Z,79.20
2019-01-14T23:10:02.003Z,79.59
2019-01-14T23:14:09.068Z,79.59
2019-01-14T23:18:16.323Z,79.35
2019-01-14T23:22:23.227Z,79.43
2019-01-14T23:26:30.257Z,79.54
2019-01-14T23:30:37.534Z,80.26
2019-01-14T23:34:44.661Z,80.56
2019-01-14T23:38:51.861Z,81.08
2019-01-14T23:43:02.526Z,81.50
2019-01-14T23:47:09.896Z,81.77
2019-01-14T23:51:16.902Z,81.99
2019-01-14T23:55:24.168Z,82.96
2019-01-14T23:59:31.140Z,82.29
